Pleasant Hill, Missouri
Current Conditions -  °F | °C
As of 2:53 AM on Friday 28 Nov 2014 (Local Time) from KLXT Reporting Station
Clear Clear  
Wind Chill: 22°   Ceiling: Unl
Heat Index: 32°   Visibility: 10mi
Dew Point: 22°   Wind: 14mph
Humidity: 66%   Direction: 180°S
Pressure: 30.15"   Gusts: 23mph
Location:  38.79°N, 94.27°W
Report Text: KLXT 280853Z AUTO 18012G20KT 10SM CLR 00/M06 A3015 RMK AO2 SLP216 T00001056 58035 TSNO
Loading
Personal Weather Stations






























Interactive Weather Map New forecast layout! Learn more

10-Day Weather Forecast

Advertisements
Track Severe Weather on mobile